createdAt,value
2023-01-13T17:35:19.194Z,50.30
2023-01-13T17:37:48.845Z,43.70
2023-01-13T17:40:18.262Z,43.60
2023-01-13T17:42:47.483Z,38.80
2023-01-13T17:45:16.798Z,42.00
2023-01-13T17:47:47.414Z,38.50
2023-01-13T17:50:18.230Z,40.20
2023-01-13T17:52:47.298Z,41.10
2023-01-13T17:55:16.835Z,39.90
2023-01-13T17:57:46.178Z,42.10
2023-01-13T18:00:16.648Z,38.50
2023-01-13T18:02:45.804Z,38.40
2023-01-13T18:05:14.751Z,38.80
2023-01-13T18:07:43.770Z,38.30
2023-01-13T18:10:12.446Z,39.90
2023-01-13T18:12:41.436Z,39.70
2023-01-13T18:15:13.183Z,42.50
2023-01-13T18:17:42.429Z,46.30
2023-01-13T18:20:37.735Z,47.80
2023-01-13T18:23:35.585Z,46.00
2023-01-13T18:26:37.584Z,47.70
2023-01-13T18:29:07.262Z,46.10
2023-01-13T18:31:38.551Z,46.80
2023-01-13T18:34:08.604Z,45.70
2023-01-13T18:36:39.125Z,42.80
2023-01-13T18:39:12.787Z,39.90
2023-01-13T18:42:00.736Z,44.20
2023-01-13T18:44:29.878Z,41.80
2023-01-13T18:46:59.502Z,41.70
2023-01-13T18:49:28.509Z,43.80
2023-01-13T18:51:57.407Z,45.80
2023-01-13T18:54:26.658Z,42.30
2023-01-13T18:56:56.399Z,39.20
2023-01-13T18:59:26.766Z,40.10
2023-01-13T19:01:55.773Z,40.80
2023-01-13T19:04:25.539Z,39.40
2023-01-13T19:07:00.620Z,39.20
2023-01-13T19:09:29.992Z,40.60
2023-01-13T19:12:01.343Z,35.60
2023-01-13T19:17:14.206Z,37.80
2023-01-13T19:19:44.856Z,37.80
2023-01-13T19:22:17.556Z,38.80
2023-01-13T19:24:46.845Z,36.30
2023-01-13T19:27:17.852Z,38.60
2023-01-13T19:29:52.318Z,35.90
2023-01-13T19:32:22.620Z,33.70
2023-01-13T19:34:51.841Z,38.00
2023-01-13T19:37:20.882Z,33.70
2023-01-13T19:39:49.678Z,35.80
2023-01-13T19:42:36.649Z,33.90
2023-01-13T19:45:25.557Z,37.10
2023-01-13T19:47:58.437Z,37.10
2023-01-13T19:50:27.520Z,33.20
2023-01-13T19:52:56.344Z,35.60
2023-01-13T19:55:24.976Z,34.90
2023-01-13T19:57:53.984Z,33.60
2023-01-13T20:00:23.959Z,33.40
2023-01-13T20:02:53.607Z,34.20
2023-01-13T20:05:25.972Z,33.00
2023-01-13T20:07:55.071Z,32.60
2023-01-13T20:10:25.798Z,31.80
2023-01-13T20:12:54.500Z,33.00
2023-01-13T20:15:24.424Z,33.20
2023-01-13T20:17:53.449Z,31.30
2023-01-13T20:20:22.485Z,30.10
2023-01-13T20:22:51.464Z,31.50
2023-01-13T20:25:20.486Z,34.50
2023-01-13T20:27:49.280Z,29.60
2023-01-13T20:30:18.266Z,31.60
2023-01-13T20:32:47.157Z,30.30
2023-01-13T20:35:16.321Z,33.00
2023-01-13T20:37:45.154Z,30.20
2023-01-13T20:40:16.404Z,30.40
2023-01-13T20:42:45.442Z,30.80
2023-01-13T20:45:20.844Z,29.20
2023-01-13T20:47:50.724Z,36.30
2023-01-13T20:50:20.134Z,36.60
2023-01-13T20:52:49.057Z,39.10
2023-01-13T20:55:18.135Z,37.40
2023-01-13T20:57:49.352Z,36.60
2023-01-13T21:00:19.235Z,37.80
2023-01-13T21:02:48.561Z,37.40
2023-01-13T21:05:17.886Z,36.30
2023-01-13T21:07:47.013Z,36.00
2023-01-13T21:10:16.386Z,34.80
2023-01-13T21:13:03.995Z,35.10
2023-01-13T21:15:33.217Z,36.40
2023-01-13T21:18:21.897Z,34.20
2023-01-13T21:21:11.901Z,35.20
2023-01-13T21:23:42.988Z,33.30
2023-01-13T21:26:13.809Z,34.20
2023-01-13T21:28:43.376Z,33.40
2023-01-13T21:31:13.633Z,34.10
2023-01-13T21:33:42.632Z,33.40
2023-01-13T21:36:16.132Z,33.60
2023-01-13T21:38:45.097Z,32.90
2023-01-13T21:41:15.469Z,30.20
2023-01-13T21:44:03.118Z,31.40
2023-01-13T21:46:50.871Z,31.50
2023-01-13T21:49:19.742Z,32.50
2023-01-13T21:51:48.697Z,28.60
2023-01-13T21:54:17.486Z,30.00
2023-01-13T21:56:47.958Z,29.20
2023-01-13T21:59:17.036Z,30.30
2023-01-13T22:02:10.438Z,27.20
2023-01-13T22:04:35.733Z,27.80
2023-01-13T22:07:06.794Z,27.10
2023-01-13T22:09:36.696Z,26.20
2023-01-13T22:12:06.135Z,28.10
2023-01-13T22:14:36.935Z,26.60
2023-01-13T22:17:06.112Z,27.50
2023-01-13T22:19:39.434Z,25.40
2023-01-13T22:22:14.408Z,25.00
2023-01-13T22:24:43.985Z,24.00
2023-01-13T22:27:31.236Z,22.90
2023-01-13T22:30:00.504Z,23.00
2023-01-13T22:32:29.629Z,23.40
2023-01-13T22:34:58.406Z,24.10
2023-01-13T22:37:27.193Z,21.30
2023-01-13T22:39:56.284Z,22.40
2023-01-13T22:42:25.193Z,23.50
2023-01-13T22:44:53.956Z,21.40
2023-01-13T22:47:22.648Z,23.80
2023-01-13T22:49:52.010Z,21.80
2023-01-13T22:52:22.597Z,23.80
2023-01-13T22:54:51.493Z,22.80
2023-01-13T22:57:21.862Z,25.80
2023-01-13T22:59:52.654Z,24.10
2023-01-13T23:02:21.618Z,23.30
2023-01-13T23:04:50.671Z,22.50
2023-01-13T23:07:19.662Z,21.50
2023-01-13T23:09:48.725Z,23.40
2023-01-13T23:12:17.463Z,21.30
2023-01-13T23:14:46.164Z,20.90
2023-01-13T23:17:15.227Z,22.30
2023-01-13T23:19:44.071Z,24.80
2023-01-13T23:22:14.168Z,22.80
2023-01-13T23:24:43.171Z,23.20
2023-01-13T23:27:12.140Z,24.30
2023-01-13T23:29:41.230Z,23.10
2023-01-13T23:32:10.141Z,21.90
2023-01-13T23:34:39.180Z,20.80
2023-01-13T23:37:08.248Z,22.90
2023-01-13T23:39:37.072Z,22.10
2023-01-13T23:42:06.203Z,22.80
2023-01-13T23:44:35.249Z,21.40
2023-01-13T23:47:04.151Z,21.70
2023-01-13T23:49:33.079Z,21.90
2023-01-13T23:52:01.963Z,23.10
2023-01-13T23:54:30.807Z,23.20
2023-01-13T23:57:00.849Z,22.30
2023-01-13T23:59:29.641Z,23.00
